เทศบาลนครลำปาง, ประเทศไทย

03:33 AM ICT วัน พฤศจิกายน 01, 2014 (GMT +0700)
Chiang Mai International | Change Station
CLOSE
Current Station
Airport
Location: Chiang Mai,
Elevation: 1030 ft
Nearby Weather Stations

Elev 1030 ft 18.77 °N, 98.97 °E | Updated 33 minutes ago

Partly Cloudy
มีเมฆคลุมเป็นส่วนๆ
75 ฟาเรนไฮน์
Feels Like 75 ฟาเรนไฮน์
N
4
ลม ความผันแปร ลม from ทางทิศตะวันตก

วันนี้
High -- | Low -- ฟาเรนไฮน์
--% Chance of Precip.
Yesterday
High -- | Low -- ฟาเรนไฮน์
Precip. -- นิ้ว
6:21 AM 5:49 PM
ไตรมาสแรก, 58% visible
ความดัน 29.89 นิ้ว
ทัศนวิสัย 6.2 ไมล์
เมฆ Few 3500 ft
อุณหภูมิที่อากาศอาจจับตัวเป็นหยาดน้ำค้าง 72 ฟาเรนไฮน์
ความชื้น 89%
Rainfall 0.00 นิ้ว
Snow Depth Not available.
UV 0 out of 12
Pollen Not available.
Air Quality Not available.
Flu Activity Not available.
METAR VTCC 312000Z 26003KT 9999 FEW035 24/22 Q1012 A2990 NOSIG

More Conditions Fewer Conditions

ความดัน 29.89 นิ้ว
ทัศนวิสัย 6.2 ไมล์
เมฆ Few 3500 ft
อุณหภูมิที่อากาศอาจจับตัวเป็นหยาดน้ำค้าง 72 ฟาเรนไฮน์
ความชื้น 89%
Rainfall 0.00 นิ้ว
Snow Depth Not available.
UV 0 out of 12
Pollen Not available.
Air Quality Not available.
Flu Activity Not available.
METAR VTCC 312000Z 26003KT 9999 FEW035 24/22 Q1012 A2990 NOSIG

More Conditions Fewer Conditions

10-Day Weather Forecast

Almanac

ดาราศาสตร์

Nov. 01, 2014 Rise Set
Actual Time
Civil Twilight
Nautical Twilight
Astronomical Twilight
Moon
Length Of Visible Light
ความยาวของวัน
Tomorrow will be .
, % of the Moon is Illuminated

Today's Extremes

Country Highs Country Lows

Community

WunderPhotos

Upload Photos

1,766,733 photos uploaded!

WunderBlogs® & News

Nearby

Air Quality

  Air Quality AQ Index Pollutant
Not available.

Snow Depth

Station Depth Elevation

Earthquake Activity

City Distance Mag. Time & Date
Minimum magnitude displayed is 2.5.

Coastal Water Temperatures

สถานที่ อุณหภูมิ

Nearby Weather Stations